Terminal Aerodrome Forecast
Issued by NWS Cleveland, OH

Home | Current Version | Previous Version | Text Only | Print | Product List | Glossary On
Versions: 1 2 3 4 5 6 7 8 9 10 11 12 13 14
000
FTUS41 KCLE 131700
TAFTOL
TAF
KTOL 131724Z 1318/1418 28012G20KT P6SM SCT025 BKN040
     FM132200 26008KT P6SM SCT040 BKN200
     FM140100 28004KT P6SM FEW120 SCT250
     FM141000 VRB03KT 5SM BR SCT040
     FM141200 26006KT P6SM VCSH SCT040 BKN150=

USA.gov is the U.S. government's official web portal to all federal, state and local government web resources and services.